Time;durP1;ratioP1;P1;durP2;ratioP2;P2;SDS_P1;SDS_P2;PMS_P1;PMS_P2;Temp;Humidity;BMP_temperature;BMP_pressure;BME280_temperature;BME280_humidity;BME280_pressure;Samples;Min_cycle;Max_cycle;Signal;HPM_P1;HPM_P2
2022/03/27 00:00:44;;;;;;;15.73;12.33;;;;;;;3.61;100.00;98205.97;4999119;28;20228;-55
2022/03/27 00:03:13;;;;;;;20.13;13.17;;;;;;;3.58;100.00;98206.19;4986385;28;20200;-57
2022/03/27 00:05:41;;;;;;;18.13;13.93;;;;;;;3.51;100.00;98209.38;5000786;28;20568;-57
2022/03/27 00:08:09;;;;;;;21.33;14.77;;;;;;;3.43;100.00;98216.03;4985638;28;20740;-56
2022/03/27 00:13:21;;;;;;;18.13;13.20;;;;;;;3.43;100.00;98210.78;4999714;28;20880;-54
2022/03/27 00:15:49;;;;;;;16.27;12.00;;;;;;;3.47;100.00;98214.03;5004878;28;20296;-55
2022/03/27 00:18:17;;;;;;;22.73;14.13;;;;;;;3.56;100.00;98215.94;4983613;28;20239;-55
2022/03/27 00:20:45;;;;;;;17.13;13.43;;;;;;;3.54;100.00;98212.59;5001292;28;20913;-53
2022/03/27 00:23:13;;;;;;;15.53;11.80;;;;;;;3.36;100.00;98213.94;5001322;28;20208;-55
2022/03/27 00:25:43;;;;;;;20.13;14.17;;;;;;;3.36;100.00;98214.81;4988882;28;20213;-51
2022/03/27 00:28:11;;;;;;;14.63;11.87;;;;;;;3.40;100.00;98215.41;4965110;28;20226;-52
2022/03/27 00:30:41;;;;;;;14.77;12.27;;;;;;;3.36;100.00;98212.19;4998124;28;20232;-53
2022/03/27 00:33:09;;;;;;;16.53;14.23;;;;;;;3.25;100.00;98199.06;5004296;28;20295;-55
2022/03/27 00:35:37;;;;;;;17.30;12.97;;;;;;;3.12;100.00;98207.78;4988627;28;20328;-55
2022/03/27 00:38:06;;;;;;;16.70;12.90;;;;;;;3.02;100.00;98201.53;5005946;28;20204;-57
2022/03/27 00:40:35;;;;;;;17.97;12.87;;;;;;;3.06;100.00;98213.47;4991731;28;20282;-52
2022/03/27 00:43:03;;;;;;;21.53;14.70;;;;;;;3.02;100.00;98209.41;4968628;28;20216;-54
2022/03/27 00:45:32;;;;;;;18.90;13.77;;;;;;;2.94;100.00;98209.94;5007032;28;20841;-53
2022/03/27 00:48:01;;;;;;;20.40;13.90;;;;;;;2.93;100.00;98210.06;5009959;28;20213;-56
2022/03/27 00:50:30;;;;;;;16.27;13.57;;;;;;;2.91;100.00;98214.59;4986727;28;21093;-53
2022/03/27 00:52:59;;;;;;;17.40;13.70;;;;;;;2.85;100.00;98215.84;5005684;28;20230;-57
2022/03/27 00:55:27;;;;;;;22.93;13.83;;;;;;;2.72;100.00;98210.66;4989632;28;21410;-56
2022/03/27 00:57:55;;;;;;;19.37;13.53;;;;;;;2.85;100.00;98214.09;4976959;28;20230;-58
2022/03/27 01:00:43;;;;;;;15.00;13.10;;;;;;;2.81;100.00;98206.53;5002958;28;20312;-56
2022/03/27 01:03:14;;;;;;;16.20;12.07;;;;;;;2.88;100.00;98206.00;5006876;28;20314;-53
2022/03/27 01:05:43;;;;;;;14.93;13.10;;;;;;;2.93;100.00;98202.22;4996297;28;20784;-57
2022/03/27 01:08:13;;;;;;;17.27;13.63;;;;;;;2.96;100.00;98204.63;5004896;28;20200;-56
2022/03/27 01:10:41;;;;;;;17.70;13.27;;;;;;;2.88;100.00;98194.69;4994181;28;20616;-57
2022/03/27 01:13:11;;;;;;;20.60;13.00;;;;;;;2.91;100.00;98204.09;4981314;28;20203;-55
2022/03/27 01:15:42;;;;;;;17.60;13.73;;;;;;;2.97;100.00;98198.44;5009580;28;20222;-57
2022/03/27 01:18:12;;;;;;;17.73;14.40;;;;;;;2.84;100.00;98204.56;5002742;28;20265;-55
2022/03/27 01:20:42;;;;;;;22.17;13.73;;;;;;;2.73;100.00;98199.22;5006830;28;20220;-57
2022/03/27 01:23:12;;;;;;;15.70;14.00;;;;;;;2.60;100.00;98192.25;4988635;28;20212;-54
2022/03/27 01:25:43;;;;;;;17.20;13.60;;;;;;;2.55;100.00;98193.53;5009606;28;20259;-57
2022/03/27 01:28:13;;;;;;;16.17;13.83;;;;;;;2.59;100.00;98200.19;4962111;28;20208;-56
2022/03/27 01:30:42;;;;;;;14.77;12.60;;;;;;;2.64;100.00;98198.09;5007830;28;20232;-57
2022/03/27 01:33:10;;;;;;;15.97;12.90;;;;;;;2.59;100.00;98189.75;5006747;28;20204;-57
2022/03/27 01:35:41;;;;;;;15.00;13.33;;;;;;;2.69;100.00;98193.41;5005831;28;20322;-56
2022/03/27 01:38:09;;;;;;;17.40;14.10;;;;;;;2.64;100.00;98192.84;4992149;28;20203;-58
2022/03/27 01:40:37;;;;;;;18.40;13.60;;;;;;;2.76;100.00;98191.16;5005438;28;20224;-54
2022/03/27 01:43:05;;;;;;;15.90;13.33;;;;;;;2.70;100.00;98192.44;4989830;28;20855;-56
2022/03/27 01:45:33;;;;;;;21.30;12.27;;;;;;;2.77;100.00;98181.53;4976350;28;20220;-53
2022/03/27 01:48:01;;;;;;;15.60;12.73;;;;;;;2.76;100.00;98191.16;5005581;28;20635;-58
2022/03/27 01:50:29;;;;;;;15.43;12.33;;;;;;;2.67;100.00;98184.81;5009245;28;20228;-53
2022/03/27 01:52:59;;;;;;;18.07;12.77;;;;;;;2.77;100.00;98182.34;5003218;28;20201;-57
2022/03/27 01:55:27;;;;;;;19.63;12.20;;;;;;;2.77;100.00;98184.16;4998574;28;20489;-57
2022/03/27 01:57:55;;;;;;;15.83;13.27;;;;;;;2.65;100.00;98175.41;4994355;28;20810;-57
2022/03/27 02:00:23;;;;;;;15.60;12.80;;;;;;;2.65;100.00;98181.47;4976508;28;20216;-52
2022/03/27 02:02:52;;;;;;;15.23;13.23;;;;;;;2.64;100.00;98173.72;5005395;28;20315;-57
2022/03/27 02:05:21;;;;;;;17.27;12.63;;;;;;;2.62;100.00;98180.84;5004222;28;20283;-57
2022/03/27 02:07:50;;;;;;;19.67;13.87;;;;;;;2.67;100.00;98171.75;5009367;28;20210;-56
2022/03/27 02:10:19;;;;;;;16.60;13.30;;;;;;;2.58;100.00;98177.59;4988556;28;20228;-58
2022/03/27 02:12:47;;;;;;;15.33;11.93;;;;;;;2.46;100.00;98174.91;5006601;28;20205;-55
2022/03/27 02:15:15;;;;;;;16.33;13.63;;;;;;;2.39;100.00;98173.69;4961580;28;20208;-56
2022/03/27 02:17:43;;;;;;;19.13;12.30;;;;;;;2.41;100.00;98179.63;5006054;28;20208;-54
2022/03/27 02:20:13;;;;;;;19.37;14.67;;;;;;;2.42;100.00;98180.47;5004777;28;20896;-56
2022/03/27 02:22:41;;;;;;;14.97;13.23;;;;;;;2.45;100.00;98180.25;5005595;28;20225;-57
2022/03/27 02:25:09;;;;;;;19.90;14.47;;;;;;;2.29;100.00;98177.91;4985732;28;20231;-58
2022/03/27 02:27:39;;;;;;;20.00;16.50;;;;;;;2.27;100.00;98184.97;5009295;28;20201;-57
2022/03/27 02:30:09;;;;;;;17.40;15.37;;;;;;;2.30;100.00;98179.56;4957586;28;20228;-56
2022/03/27 02:32:37;;;;;;;16.53;14.83;;;;;;;2.25;100.00;98181.63;5005195;28;20200;-54
2022/03/27 02:35:06;;;;;;;19.43;15.27;;;;;;;2.05;100.00;98180.41;5005311;28;20265;-58
2022/03/27 02:37:34;;;;;;;17.83;15.53;;;;;;;2.06;100.00;98187.31;5006745;28;20204;-57
2022/03/27 02:40:02;;;;;;;20.20;16.83;;;;;;;1.95;100.00;98185.44;4997826;28;20225;-56
2022/03/27 02:42:33;;;;;;;19.60;16.63;;;;;;;2.10;100.00;98186.19;4981006;28;20228;-56
2022/03/27 02:45:05;;;;;;;19.37;16.13;;;;;;;1.94;100.00;98187.22;4973496;28;20215;-56
2022/03/27 02:47:33;;;;;;;20.50;17.23;;;;;;;1.96;100.00;98182.72;4997590;28;20267;-56
2022/03/27 02:50:01;;;;;;;18.20;16.30;;;;;;;2.02;100.00;98184.91;5007632;28;20213;-51
2022/03/27 02:52:29;;;;;;;20.10;17.10;;;;;;;2.07;100.00;98188.97;5008279;28;20207;-56
2022/03/27 02:54:58;;;;;;;27.83;18.23;;;;;;;2.14;100.00;98182.41;4998611;28;20204;-55
2022/03/27 02:57:26;;;;;;;22.33;17.80;;;;;;;2.02;100.00;98182.28;4991062;28;20200;-55
2022/03/27 02:59:55;;;;;;;20.83;16.33;;;;;;;2.00;100.00;98178.94;4992906;28;20220;-55
2022/03/27 03:02:25;;;;;;;20.83;16.63;;;;;;;1.84;100.00;98183.56;4973644;28;20241;-55
2022/03/27 03:04:53;;;;;;;21.37;18.13;;;;;;;1.86;100.00;98182.50;5005581;28;20744;-55
2022/03/27 03:07:22;;;;;;;23.30;16.03;;;;;;;1.82;100.00;98188.06;5006263;28;20207;-59
2022/03/27 03:09:50;;;;;;;26.87;20.80;;;;;;;1.75;100.00;98181.56;5003580;28;20779;-58
2022/03/27 03:12:18;;;;;;;19.03;16.97;;;;;;;1.67;100.00;98182.91;4985879;28;20219;-57
2022/03/27 03:14:47;;;;;;;28.53;18.33;;;;;;;1.76;100.00;98181.44;5004034;28;20205;-56
2022/03/27 03:17:15;;;;;;;21.93;18.13;;;;;;;1.75;100.00;98173.72;4957129;28;21328;-59
2022/03/27 03:19:45;;;;;;;17.67;15.80;;;;;;;1.77;100.00;98171.84;5005287;28;20244;-60
2022/03/27 03:22:14;;;;;;;20.27;17.03;;;;;;;1.74;100.00;98175.50;5003237;28;20763;-57
2022/03/27 03:24:42;;;;;;;19.67;16.10;;;;;;;1.83;100.00;98180.09;5005834;28;20209;-56
2022/03/27 03:27:10;;;;;;;20.03;15.97;;;;;;;1.81;100.00;98178.53;4987040;28;20258;-58
2022/03/27 03:29:38;;;;;;;18.23;14.90;;;;;;;1.55;100.00;98181.13;5005419;28;20712;-55
2022/03/27 03:32:07;;;;;;;19.93;16.63;;;;;;;1.66;100.00;98178.63;4988256;28;20208;-55
2022/03/27 03:34:35;;;;;;;18.83;16.10;;;;;;;1.59;100.00;98179.97;4973259;28;20682;-58
2022/03/27 03:37:05;;;;;;;19.83;15.93;;;;;;;1.55;100.00;98175.91;5004578;28;20293;-60
2022/03/27 03:39:33;;;;;;;20.53;16.97;;;;;;;1.56;100.00;98175.81;5009184;28;20220;-59
2022/03/27 03:42:01;;;;;;;20.23;18.20;;;;;;;1.54;100.00;98174.22;5004905;28;20816;-58
2022/03/27 03:44:29;;;;;;;20.57;15.93;;;;;;;1.48;100.00;98170.22;4986999;28;20212;-60
2022/03/27 03:46:57;;;;;;;18.37;15.83;;;;;;;1.48;100.00;98169.41;4983239;28;20212;-54
2022/03/27 03:49:25;;;;;;;18.80;16.00;;;;;;;1.40;100.00;98177.75;4974538;28;20224;-59
2022/03/27 03:51:53;;;;;;;18.07;15.93;;;;;;;1.34;100.00;98175.53;5005027;28;20209;-56
2022/03/27 03:54:23;;;;;;;21.07;15.40;;;;;;;1.26;100.00;98184.72;5010193;28;20224;-56
2022/03/27 03:56:51;;;;;;;16.87;14.00;;;;;;;1.18;100.00;98173.09;5006418;28;20315;-56
2022/03/27 03:59:19;;;;;;;17.37;13.53;;;;;;;1.04;100.00;98184.44;4994088;28;20232;-54
2022/03/27 04:01:57;;;;;;;16.57;13.83;;;;;;;0.93;100.00;98172.91;4986029;28;20223;-55
2022/03/27 04:04:26;;;;;;;16.87;13.70;;;;;;;0.97;100.00;98190.06;4952100;28;20220;-58
2022/03/27 04:06:54;;;;;;;15.23;13.63;;;;;;;0.93;100.00;98188.56;5003784;28;20983;-57
2022/03/27 04:09:23;;;;;;;21.57;14.60;;;;;;;1.04;100.00;98189.66;5013074;28;20224;-56
2022/03/27 04:11:52;;;;;;;26.97;21.37;;;;;;;0.96;100.00;98193.59;5002104;28;20912;-59
2022/03/27 04:14:20;;;;;;;23.50;17.27;;;;;;;1.00;100.00;98194.25;5009166;28;20203;-58
2022/03/27 04:16:49;;;;;;;17.47;14.40;;;;;;;1.04;100.00;98192.25;4944300;28;20236;-55
2022/03/27 04:19:17;;;;;;;20.10;14.50;;;;;;;1.02;100.00;98200.22;4958480;28;20262;-58
2022/03/27 04:21:45;;;;;;;15.40;13.50;;;;;;;0.96;100.00;98198.00;5004587;28;20206;-57
2022/03/27 04:24:14;;;;;;;15.63;13.50;;;;;;;0.79;100.00;98201.69;4963359;28;20225;-56
2022/03/27 04:26:43;;;;;;;15.23;11.83;;;;;;;0.82;100.00;98214.53;5006138;28;20199;-57
2022/03/27 04:29:11;;;;;;;20.00;14.00;;;;;;;0.89;100.00;98207.13;5006789;28;20663;-54
2022/03/27 04:31:40;;;;;;;16.63;13.13;;;;;;;0.81;100.00;98211.06;4971158;28;20722;-58
2022/03/27 04:34:09;;;;;;;18.60;14.30;;;;;;;0.86;100.00;98209.00;5005578;28;21067;-56
2022/03/27 04:36:37;;;;;;;19.93;17.20;;;;;;;0.89;100.00;98210.59;4981335;28;20535;-58
2022/03/27 04:39:06;;;;;;;17.20;14.20;;;;;;;0.85;100.00;98217.75;4988379;28;20483;-59
2022/03/27 04:41:34;;;;;;;17.73;13.70;;;;;;;0.89;100.00;98218.41;5006424;28;20211;-56
2022/03/27 04:44:04;;;;;;;18.10;13.83;;;;;;;0.92;100.00;98219.97;5011853;28;21616;-59
2022/03/27 04:46:32;;;;;;;24.43;18.03;;;;;;;1.10;100.00;98207.53;4979819;28;21174;-61
2022/03/27 04:49:01;;;;;;;20.53;15.20;;;;;;;1.25;100.00;98208.31;4987560;28;20208;-62
2022/03/27 04:51:29;;;;;;;18.03;13.47;;;;;;;1.32;100.00;98221.81;4963982;28;20627;-62
2022/03/27 04:53:58;;;;;;;18.40;14.23;;;;;;;1.25;100.00;98214.38;4985904;28;20578;-60
2022/03/27 04:56:26;;;;;;;17.33;13.13;;;;;;;1.23;100.00;98218.88;4978035;28;20212;-55
2022/03/27 04:58:54;;;;;;;15.53;13.60;;;;;;;1.15;100.00;98219.34;5009029;28;20200;-56
2022/03/27 05:01:23;;;;;;;14.67;13.17;;;;;;;1.05;100.00;98227.88;4985804;28;20214;-55
2022/03/27 05:03:52;;;;;;;15.23;13.10;;;;;;;1.05;100.00;98218.28;4983618;28;20315;-56
2022/03/27 05:06:20;;;;;;;15.33;12.97;;;;;;;1.22;100.00;98222.41;4960773;28;20217;-55
2022/03/27 05:08:48;;;;;;;16.77;12.93;;;;;;;1.31;100.00;98218.34;4985913;28;20212;-55
2022/03/27 05:11:16;;;;;;;19.07;13.67;;;;;;;1.40;100.00;98217.78;5001327;28;20212;-56
2022/03/27 05:13:44;;;;;;;13.70;12.30;;;;;;;1.39;100.00;98215.25;5004761;28;20678;-54
2022/03/27 05:16:12;;;;;;;15.23;11.40;;;;;;;1.37;100.00;98206.69;5005527;28;20576;-58
2022/03/27 05:18:42;;;;;;;18.17;12.70;;;;;;;1.40;100.00;98217.78;4965735;28;21241;-58
2022/03/27 05:21:10;;;;;;;17.10;12.17;;;;;;;1.34;100.00;98215.56;4958934;28;20212;-54
2022/03/27 05:23:38;;;;;;;14.50;12.63;;;;;;;1.14;100.00;98199.41;5004278;28;20257;-56
2022/03/27 05:26:06;;;;;;;16.33;12.47;;;;;;;1.32;100.00;98220.03;4989759;28;20208;-56
2022/03/27 05:28:34;;;;;;;17.83;12.77;;;;;;;1.47;100.00;98212.13;5003863;28;20200;-58
2022/03/27 05:31:08;;;;;;;13.93;12.40;;;;;;;1.38;100.00;98224.03;4980967;28;20266;-56
2022/03/27 05:33:36;;;;;;;16.93;12.67;;;;;;;1.41;100.00;98218.59;4982625;28;20201;-57
2022/03/27 05:36:07;;;;;;;17.60;13.93;;;;;;;1.47;100.00;98219.97;4970432;28;20216;-60
2022/03/27 05:38:37;;;;;;;15.57;12.83;;;;;;;1.66;100.00;98217.81;5009018;28;20299;-54
2022/03/27 05:41:05;;;;;;;13.03;11.23;;;;;;;1.58;100.00;98214.88;4960629;28;20421;-56
2022/03/27 05:43:33;;;;;;;16.70;12.43;;;;;;;1.56;100.00;98233.28;5008731;28;20227;-57
2022/03/27 05:46:01;;;;;;;16.10;12.50;;;;;;;1.63;100.00;98233.69;5004920;28;20236;-60
2022/03/27 05:48:35;;;;;;;18.07;13.53;;;;;;;1.69;100.00;98237.69;4992245;28;20223;-60
2022/03/27 05:51:04;;;;;;;16.97;13.97;;;;;;;1.79;100.00;98240.53;4973184;28;20632;-60
2022/03/27 05:53:33;;;;;;;16.27;13.77;;;;;;;1.94;100.00;98241.28;5006525;28;20646;-56
2022/03/27 05:56:01;;;;;;;16.23;12.80;;;;;;;1.78;100.00;98242.28;4976605;28;20212;-54
2022/03/27 05:58:30;;;;;;;14.90;13.30;;;;;;;1.81;100.00;98242.06;4997715;28;20315;-54
2022/03/27 06:00:58;;;;;;;17.17;13.23;;;;;;;1.84;100.00;98243.66;5004794;28;20228;-54
2022/03/27 06:03:26;;;;;;;15.20;13.70;;;;;;;2.10;100.00;98243.69;5010442;28;20224;-55
2022/03/27 06:05:54;;;;;;;16.90;12.83;;;;;;;2.14;100.00;98243.38;4993888;28;21487;-56
2022/03/27 06:08:22;;;;;;;16.97;11.80;;;;;;;2.22;100.00;98242.00;4973518;28;20243;-57
2022/03/27 06:10:52;;;;;;;13.70;12.23;;;;;;;2.31;100.00;98236.97;4982645;28;20550;-56
2022/03/27 06:13:21;;;;;;;16.10;13.37;;;;;;;2.37;100.00;98237.50;4991293;28;20209;-58
2022/03/27 06:15:50;;;;;;;14.97;13.30;;;;;;;2.44;100.00;98239.59;5004458;28;20803;-53
2022/03/27 06:18:18;;;;;;;14.27;12.53;;;;;;;2.49;100.00;98241.91;5008706;28;20629;-56
2022/03/27 06:20:46;;;;;;;15.70;12.13;;;;;;;2.67;100.00;98246.78;4961262;28;20225;-52
2022/03/27 06:23:14;;;;;;;13.97;12.57;;;;;;;2.70;100.00;98243.94;4966379;28;20238;-56
2022/03/27 06:25:42;;;;;;;14.73;12.80;;;;;;;2.91;100.00;98246.81;4989540;28;20204;-53
2022/03/27 06:28:12;;;;;;;13.97;12.47;;;;;;;2.91;100.00;98246.00;4987060;28;20213;-55
2022/03/27 06:30:40;;;;;;;14.13;12.13;;;;;;;3.09;100.00;98249.09;5001074;28;20686;-56
2022/03/27 06:33:08;;;;;;;14.83;11.77;;;;;;;3.16;100.00;98250.31;5000186;28;20732;-59
2022/03/27 06:35:37;;;;;;;14.10;12.60;;;;;;;3.36;100.00;98251.47;4982128;28;20243;-55
2022/03/27 06:38:05;;;;;;;18.17;12.93;;;;;;;3.53;100.00;98247.63;4963655;28;21747;-56
2022/03/27 06:40:33;;;;;;;12.87;11.53;;;;;;;3.61;100.00;98258.38;4989567;28;20243;-55
2022/03/27 06:43:01;;;;;;;18.23;12.57;;;;;;;3.90;100.00;98258.00;4982596;28;20405;-54
2022/03/27 06:45:31;;;;;;;16.63;12.30;;;;;;;4.66;100.00;98253.19;4982872;28;20820;-57
2022/03/27 06:47:59;;;;;;;13.80;11.40;;;;;;;4.71;100.00;98253.66;5005892;28;20208;-55
2022/03/27 06:50:27;;;;;;;12.37;11.20;;;;;;;4.69;100.00;98259.03;4985514;28;20829;-57
2022/03/27 06:52:55;;;;;;;14.83;12.03;;;;;;;4.75;100.00;98253.31;4993042;28;20665;-56
2022/03/27 06:55:23;;;;;;;16.63;12.87;;;;;;;4.85;100.00;98247.31;4947734;28;20209;-54
2022/03/27 06:57:52;;;;;;;13.60;12.20;;;;;;;4.90;100.00;98246.00;5003797;28;20823;-54
2022/03/27 07:03:09;;;;;;;14.63;12.70;;;;;;;5.20;100.00;98244.53;5003295;28;20208;-56
2022/03/27 07:05:40;;;;;;;15.67;12.43;;;;;;;5.17;100.00;98244.78;4985890;28;20236;-57
2022/03/27 07:08:10;;;;;;;12.23;11.00;;;;;;;5.28;100.00;98246.50;4987331;28;20371;-55
2022/03/27 07:10:38;;;;;;;16.40;12.63;;;;;;;5.52;100.00;98252.56;4962066;28;20431;-56
2022/03/27 07:13:08;;;;;;;14.90;13.23;;;;;;;5.72;100.00;98237.75;4983750;28;20212;-57
2022/03/27 07:15:37;;;;;;;14.87;13.23;;;;;;;6.09;100.00;98250.50;4993045;28;20212;-55
2022/03/27 07:18:07;;;;;;;16.30;13.33;;;;;;;6.31;100.00;98256.56;5005502;28;20235;-56
2022/03/27 07:20:40;;;;;;;15.90;12.97;;;;;;;6.01;100.00;98251.13;5002514;28;20440;-55
2022/03/27 07:23:10;;;;;;;13.10;11.67;;;;;;;6.45;100.00;98258.88;4965067;28;20208;-57
2022/03/27 07:25:40;;;;;;;16.20;12.93;;;;;;;6.65;100.00;98254.53;4967640;28;20221;-57
2022/03/27 07:28:09;;;;;;;14.27;12.03;;;;;;;6.90;100.00;98257.66;4985409;28;20323;-58
2022/03/27 07:30:38;;;;;;;14.77;11.37;;;;;;;7.26;100.00;98258.97;4990612;28;20242;-57
2022/03/27 07:33:08;;;;;;;12.90;11.27;;;;;;;8.80;100.00;98252.00;4998887;28;20497;-56
2022/03/27 07:35:36;;;;;;;12.30;10.63;;;;;;;10.39;100.00;98263.03;5002405;28;20511;-55
2022/03/27 07:38:05;;;;;;;14.30;11.53;;;;;;;11.81;89.11;98263.34;4985909;28;20212;-56
2022/03/27 07:40:33;;;;;;;14.37;12.00;;;;;;;12.58;76.32;98262.16;5000843;28;20309;-56
2022/03/27 07:43:02;;;;;;;13.83;11.20;;;;;;;13.30;67.31;98263.00;4965481;28;20220;-53
2022/03/27 07:45:32;;;;;;;12.70;11.60;;;;;;;13.92;60.81;98265.78;4965457;28;20476;-53
2022/03/27 07:48:00;;;;;;;13.27;11.97;;;;;;;14.09;59.13;98268.34;5001135;28;20227;-58
2022/03/27 07:50:31;;;;;;;13.67;12.27;;;;;;;14.47;56.05;98260.31;4996636;28;20445;-61
2022/03/27 07:52:59;;;;;;;15.17;11.03;;;;;;;13.37;60.81;98257.81;5003975;28;20560;-56
2022/03/27 07:55:28;;;;;;;13.80;12.47;;;;;;;12.20;70.90;98258.38;4988667;28;20220;-57
2022/03/27 07:57:57;;;;;;;14.23;11.80;;;;;;;11.45;89.80;98266.28;4967872;28;20867;-57
2022/03/27 08:00:27;;;;;;;13.57;11.87;;;;;;;11.05;95.50;98254.59;4966928;28;21671;-54
2022/03/27 08:02:56;;;;;;;12.87;11.57;;;;;;;10.62;100.00;98266.00;5004051;28;20201;-59
2022/03/27 08:05:25;;;;;;;14.23;11.93;;;;;;;10.66;100.00;98258.56;4998323;28;20231;-58
2022/03/27 08:07:55;;;;;;;12.40;11.13;;;;;;;10.34;100.00;98257.38;5003570;28;20303;-56
2022/03/27 08:10:23;;;;;;;13.30;11.10;;;;;;;10.41;100.00;98264.53;4985494;28;20225;-59
2022/03/27 08:12:51;;;;;;;12.90;11.70;;;;;;;10.36;100.00;98258.03;4965398;28;20322;-57
2022/03/27 08:15:20;;;;;;;13.23;11.33;;;;;;;10.59;100.00;98266.31;4987064;28;20303;-58
2022/03/27 08:17:51;;;;;;;13.00;11.53;;;;;;;10.55;100.00;98259.69;4982494;28;20644;-54
2022/03/27 08:20:20;;;;;;;16.50;12.80;;;;;;;10.84;100.00;98258.50;5004932;28;20457;-53
2022/03/27 08:22:48;;;;;;;15.80;10.80;;;;;;;11.08;100.00;98256.91;4999037;28;20480;-55
2022/03/27 08:28:00;;;;;;;11.53;10.33;;;;;;;11.26;100.00;98252.34;4962153;28;20209;-50
2022/03/27 08:30:28;;;;;;;12.90;11.53;;;;;;;11.48;100.00;98258.00;4987073;28;20562;-57
2022/03/27 08:32:56;;;;;;;12.53;11.23;;;;;;;11.72;100.00;98259.84;4985946;28;20204;-54
2022/03/27 08:35:24;;;;;;;11.60;10.40;;;;;;;12.10;94.19;98261.22;5001257;28;20219;-57
2022/03/27 08:37:52;;;;;;;11.63;10.53;;;;;;;12.53;89.12;98239.72;4997674;28;20212;-55
2022/03/27 08:40:22;;;;;;;11.90;10.37;;;;;;;12.38;84.60;98251.06;4985283;28;20235;-59
2022/03/27 08:42:50;;;;;;;11.83;10.27;;;;;;;12.53;85.67;98247.69;4967108;28;20413;-53
2022/03/27 08:45:19;;;;;;;12.63;11.33;;;;;;;12.76;84.58;98249.63;4986878;28;20516;-56
2022/03/27 08:47:47;;;;;;;13.73;11.27;;;;;;;12.54;84.20;98249.34;4981850;28;20209;-54
2022/03/27 08:50:29;;;;;;;12.67;10.97;;;;;;;12.55;84.19;98248.34;5002983;28;20220;-58
2022/03/27 08:52:59;;;;;;;13.40;11.57;;;;;;;12.88;82.95;98242.94;4985834;28;20227;-57
2022/03/27 08:55:46;;;;;;;14.57;10.90;;;;;;;13.28;77.63;98241.06;4985034;28;20220;-58
2022/03/27 08:58:15;;;;;;;10.90;9.87;;;;;;;13.46;69.83;98243.47;4976473;28;20281;-52
2022/03/27 09:00:44;;;;;;;13.33;10.93;;;;;;;13.75;68.87;98236.63;4984246;28;20236;-55
2022/03/27 09:03:12;;;;;;;11.27;10.10;;;;;;;13.97;65.83;98233.28;4989841;28;20680;-54
2022/03/27 09:05:41;;;;;;;11.83;10.40;;;;;;;14.00;65.26;98246.25;4988556;28;20923;-56
2022/03/27 09:08:12;;;;;;;12.20;9.80;;;;;;;14.15;62.20;98239.09;5009536;28;20193;-57
2022/03/27 09:10:41;;;;;;;11.80;10.43;;;;;;;14.03;62.55;98237.91;4986924;28;20236;-54
2022/03/27 09:13:13;;;;;;;10.93;9.83;;;;;;;14.29;63.72;98231.34;4999595;28;20352;-56
2022/03/27 09:15:42;;;;;;;11.23;10.03;;;;;;;14.47;60.87;98239.78;4955238;28;20404;-54
2022/03/27 09:18:12;;;;;;;11.57;10.50;;;;;;;14.47;59.55;98236.31;4987978;28;20378;-56
2022/03/27 09:20:42;;;;;;;10.53;9.30;;;;;;;14.53;60.53;98240.06;4988465;28;20228;-54
2022/03/27 09:23:18;;;;;;;11.40;9.87;;;;;;;14.93;57.54;98234.47;5007572;28;21076;-56
2022/03/27 09:25:50;;;;;;;12.03;10.80;;;;;;;14.96;57.57;98237.59;4988649;28;21620;-56
2022/03/27 09:28:28;;;;;;;11.73;10.50;;;;;;;15.00;56.46;98235.38;5005096;28;20212;-56
2022/03/27 09:30:57;;;;;;;11.63;10.43;;;;;;;14.91;55.62;98229.31;4951167;28;20229;-53
2022/03/27 09:33:47;;;;;;;11.90;10.07;;;;;;;14.70;55.26;98230.03;4988887;28;20617;-55
2022/03/27 09:36:18;;;;;;;10.27;9.23;;;;;;;15.08;54.62;98234.47;5001717;28;20708;-58
2022/03/27 09:39:16;;;;;;;12.20;11.00;;;;;;;15.18;52.48;98232.31;5005490;28;20204;-57
2022/03/27 09:41:47;;;;;;;11.50;9.63;;;;;;;14.68;53.42;98224.06;4985928;28;20224;-56
2022/03/27 09:44:22;;;;;;;12.00;10.80;;;;;;;14.81;53.95;98229.63;4975690;28;20869;-58
2022/03/27 09:46:57;;;;;;;11.40;10.27;;;;;;;15.01;54.23;98218.34;4986566;28;20316;-56
2022/03/27 09:49:38;;;;;;;11.73;10.57;;;;;;;15.02;53.26;98218.19;4980566;28;20228;-56
2022/03/27 09:52:09;;;;;;;10.50;9.37;;;;;;;14.96;52.62;98207.41;5005508;28;20208;-55
2022/03/27 09:54:55;;;;;;;13.13;9.70;;;;;;;14.93;53.91;98205.13;5002526;28;20208;-54
2022/03/27 09:57:26;;;;;;;16.70;10.07;;;;;;;15.40;52.90;98205.66;4985143;28;20914;-55
2022/03/27 09:59:56;;;;;;;14.73;10.90;;;;;;;15.63;53.05;98214.28;4973631;28;20224;-56
2022/03/27 10:02:27;;;;;;;12.23;9.00;;;;;;;15.24;52.10;98202.19;5004941;28;20216;-56
2022/03/27 10:05:06;;;;;;;11.27;10.07;;;;;;;15.49;53.04;98202.66;4973670;28;20208;-57
2022/03/27 10:07:40;;;;;;;10.50;9.47;;;;;;;15.85;50.80;98200.09;5005774;28;20228;-56
2022/03/27 10:10:10;;;;;;;10.70;9.70;;;;;;;15.94;49.80;98203.47;5003772;28;20222;-61
2022/03/27 10:12:40;;;;;;;12.83;11.10;;;;;;;15.84;49.41;98193.94;4985956;28;20209;-55
2022/03/27 10:15:11;;;;;;;10.97;9.90;;;;;;;15.96;49.88;98191.59;4973065;28;20206;-60
2022/03/27 10:17:41;;;;;;;10.80;9.80;;;;;;;16.07;50.18;98187.53;5001822;28;20290;-56
2022/03/27 10:20:12;;;;;;;9.00;8.10;;;;;;;16.09;49.59;98177.47;4971995;28;20656;-59
2022/03/27 10:22:43;;;;;;;10.00;9.10;;;;;;;15.75;50.27;98189.75;5003078;28;20314;-50
2022/03/27 10:25:13;;;;;;;7.90;7.20;;;;;;;15.99;49.08;98182.34;5006498;28;20295;-53
2022/03/27 10:27:44;;;;;;;7.73;7.00;;;;;;;16.11;50.92;98185.31;4988093;28;20223;-55
2022/03/27 10:30:15;;;;;;;8.63;7.70;;;;;;;16.09;49.83;98174.00;4966613;28;20232;-56
2022/03/27 10:32:44;;;;;;;8.97;8.17;;;;;;;16.26;48.76;98180.66;5004041;28;20200;-54
2022/03/27 10:35:23;;;;;;;8.50;7.80;;;;;;;16.00;48.80;98175.97;4980462;28;20213;-53
2022/03/27 10:37:59;;;;;;;9.07;7.73;;;;;;;16.23;48.91;98177.56;4989926;28;20287;-54
2022/03/27 10:40:33;;;;;;;5.83;5.23;;;;;;;16.09;48.04;98172.13;5000518;28;20230;-56
2022/03/27 10:43:07;;;;;;;7.60;5.83;;;;;;;16.28;45.83;98159.91;5004376;28;20215;-56
2022/03/27 10:45:36;;;;;;;6.67;6.07;;;;;;;16.45;46.30;98149.72;4956515;28;20212;-55
2022/03/27 10:48:11;;;;;;;6.63;6.00;;;;;;;16.55;46.64;98145.88;5004822;28;20771;-54
2022/03/27 10:50:51;;;;;;;6.53;5.77;;;;;;;16.51;45.89;98149.97;4968227;28;20991;-53
2022/03/27 10:53:21;;;;;;;7.23;6.00;;;;;;;16.69;45.20;98141.41;5002938;28;20214;-55
2022/03/27 10:55:51;;;;;;;7.77;7.07;;;;;;;16.78;46.05;98142.88;4986968;28;20235;-56
2022/03/27 10:58:44;;;;;;;8.30;7.03;;;;;;;16.62;46.91;98149.41;5007764;28;20205;-55
2022/03/27 11:01:37;;;;;;;9.80;6.60;;;;;;;16.54;46.11;98134.31;4987126;28;20219;-57
2022/03/27 11:04:07;;;;;;;6.37;5.83;;;;;;;16.62;46.50;98144.03;5002525;28;20693;-56
2022/03/27 11:06:38;;;;;;;7.77;7.07;;;;;;;16.71;46.08;98139.34;4971027;28;20228;-57
2022/03/27 11:09:07;;;;;;;8.03;6.17;;;;;;;16.93;45.20;98132.81;5008388;28;20860;-53
2022/03/27 11:11:54;;;;;;;6.20;5.70;;;;;;;17.03;44.98;98134.31;4991056;28;20304;-55
2022/03/27 11:14:26;;;;;;;10.90;9.93;;;;;;;17.00;45.70;98132.03;4979766;28;20219;-58
2022/03/27 11:17:18;;;;;;;7.45;5.97;;;;;;;17.26;45.65;98125.09;4958934;28;20468;-53
2022/03/27 11:19:47;;;;;;;6.03;5.33;;;;;;;16.83;45.33;98129.72;4979057;28;20240;-56
2022/03/27 11:22:49;;;;;;;5.97;5.37;;;;;;;16.96;46.00;98126.25;4969069;28;20219;-57
2022/03/27 11:25:31;;;;;;;6.17;5.57;;;;;;;16.70;46.61;98127.00;5000677;28;20204;-55
2022/03/27 11:28:11;;;;;;;6.55;5.80;;;;;;;16.53;47.59;98113.97;5006027;28;20647;-57
2022/03/27 11:31:18;;;;;;;6.90;5.70;;;;;;;16.80;47.04;98122.09;4946962;28;20728;-56
2022/03/27 11:34:15;;;;;;;7.57;5.80;;;;;;;16.46;46.78;98126.47;4966543;28;20219;-53
2022/03/27 11:36:44;;;;;;;6.00;5.23;;;;;;;16.78;46.72;98121.47;4979530;28;20201;-56
2022/03/27 11:39:14;;;;;;;5.73;5.23;;;;;;;16.81;47.29;98120.22;4972649;28;20538;-58
2022/03/27 11:41:43;;;;;;;6.70;6.10;;;;;;;16.96;48.03;98123.56;5002584;28;20209;-57